createdAt,value
2023-05-08T00:00:13.241Z,51.10
2023-05-08T00:02:42.343Z,50.90
2023-05-08T00:05:09.272Z,50.90
2023-05-08T00:07:37.552Z,50.80
2023-05-08T00:10:08.417Z,50.90
2023-05-08T00:12:35.459Z,51.10
2023-05-08T00:15:03.439Z,51.10
2023-05-08T00:17:30.579Z,51.00
2023-05-08T00:19:57.304Z,51.10
2023-05-08T00:22:24.085Z,51.20
2023-05-08T00:24:50.813Z,51.20
2023-05-08T00:27:17.735Z,51.10
2023-05-08T00:29:44.488Z,51.10
2023-05-08T00:32:11.346Z,51.10
2023-05-08T00:34:38.187Z,51.20
2023-05-08T00:37:04.947Z,51.10
2023-05-08T00:39:32.076Z,51.10
2023-05-08T00:41:58.891Z,51.10
2023-05-08T00:44:25.696Z,51.00
2023-05-08T00:46:52.565Z,50.60
2023-05-08T00:49:19.432Z,50.70
2023-05-08T00:51:48.106Z,50.80
2023-05-08T00:54:15.744Z,50.70
2023-05-08T00:56:43.719Z,50.70
2023-05-08T00:59:14.209Z,50.70
2023-05-08T01:01:42.261Z,50.70
2023-05-08T01:04:09.313Z,50.50
2023-05-08T01:06:37.208Z,50.70
2023-05-08T01:09:04.299Z,50.70
2023-05-08T01:11:36.843Z,50.70
2023-05-08T01:14:44.544Z,50.70
2023-05-08T01:17:15.361Z,50.70
2023-05-08T01:20:10.155Z,50.70
2023-05-08T01:22:46.029Z,50.70
2023-05-08T01:25:40.511Z,50.70
2023-05-08T01:28:22.409Z,50.80
2023-05-08T01:31:12.208Z,50.60
2023-05-08T01:33:56.704Z,50.60
2023-05-08T01:36:27.216Z,50.80
2023-05-08T01:39:20.342Z,50.70
2023-05-08T01:41:57.236Z,50.70
2023-05-08T01:44:28.689Z,51.00
2023-05-08T01:46:55.973Z,50.90
2023-05-08T01:49:26.890Z,50.80
2023-05-08T01:52:03.055Z,51.00
2023-05-08T01:54:41.008Z,51.00
2023-05-08T01:57:10.855Z,51.10
2023-05-08T01:59:41.344Z,51.10
2023-05-08T02:02:10.352Z,51.20
2023-05-08T02:04:38.566Z,51.20
2023-05-08T02:07:05.989Z,51.20
2023-05-08T02:09:33.025Z,50.80
2023-05-08T02:12:01.162Z,50.70
2023-05-08T02:14:29.659Z,50.90
2023-05-08T02:16:58.433Z,50.80
2023-05-08T02:19:27.014Z,50.80
2023-05-08T02:21:55.374Z,50.70
2023-05-08T02:24:24.117Z,50.50
2023-05-08T02:26:54.392Z,50.60
2023-05-08T02:29:22.926Z,50.50
2023-05-08T02:31:51.211Z,50.50
2023-05-08T02:34:19.531Z,50.50
2023-05-08T02:36:46.905Z,50.40
2023-05-08T02:39:15.408Z,50.50
2023-05-08T02:41:42.444Z,50.20
2023-05-08T02:44:09.809Z,50.60
2023-05-08T02:46:36.569Z,50.70
2023-05-08T02:49:26.686Z,51.10
2023-05-08T02:52:20.609Z,51.40
2023-05-08T02:55:00.027Z,51.80
2023-05-08T02:57:51.199Z,52.00
2023-05-08T03:00:33.289Z,51.90
2023-05-08T03:03:11.954Z,51.80
2023-05-08T03:05:43.097Z,51.70
2023-05-08T03:08:18.400Z,51.80
2023-05-08T03:10:49.255Z,51.70
2023-05-08T03:13:18.610Z,51.40
2023-05-08T03:15:56.207Z,51.50
2023-05-08T03:18:46.405Z,51.50
2023-05-08T03:21:15.559Z,51.60
2023-05-08T03:23:43.449Z,51.50
2023-05-08T03:26:10.566Z,51.40
2023-05-08T03:28:39.160Z,51.40
2023-05-08T03:31:06.891Z,51.50
2023-05-08T03:33:37.106Z,51.30
2023-05-08T03:36:04.196Z,51.30
2023-05-08T03:38:31.260Z,51.40
2023-05-08T03:40:59.589Z,51.60
2023-05-08T03:43:26.955Z,51.50
2023-05-08T03:45:55.509Z,51.60
2023-05-08T03:48:23.248Z,51.70
2023-05-08T03:50:50.878Z,51.60
2023-05-08T03:53:17.790Z,51.80
2023-05-08T03:55:44.617Z,51.80
2023-05-08T03:58:14.108Z,51.70
2023-05-08T04:01:04.293Z,51.80
2023-05-08T04:03:46.323Z,51.60
2023-05-08T04:06:28.677Z,51.80
2023-05-08T04:09:02.743Z,51.80
2023-05-08T04:11:42.574Z,51.90
2023-05-08T04:14:15.798Z,52.00
2023-05-08T04:16:49.902Z,51.90
2023-05-08T04:19:23.398Z,52.00
2023-05-08T04:21:51.520Z,52.10
2023-05-08T04:24:20.779Z,52.20
2023-05-08T04:26:48.302Z,52.40
2023-05-08T04:29:15.715Z,52.30
2023-05-08T04:31:42.763Z,52.40
2023-05-08T04:34:09.876Z,53.10
2023-05-08T04:36:37.622Z,52.70
2023-05-08T04:39:05.158Z,52.80
2023-05-08T04:41:32.391Z,52.60
2023-05-08T04:43:59.316Z,52.60
2023-05-08T04:46:26.242Z,52.70
2023-05-08T04:48:53.025Z,52.90
2023-05-08T04:51:19.866Z,52.90
2023-05-08T04:53:46.620Z,52.80
2023-05-08T04:56:13.417Z,53.10
2023-05-08T04:58:40.302Z,53.60
2023-05-08T05:01:07.160Z,53.00
2023-05-08T05:03:34.034Z,53.10
2023-05-08T05:06:01.821Z,54.10
2023-05-08T05:08:29.063Z,53.30
2023-05-08T05:10:55.849Z,53.30
2023-05-08T05:13:22.738Z,53.50
2023-05-08T05:15:51.450Z,53.80
2023-05-08T05:18:18.475Z,53.50
2023-05-08T05:20:46.060Z,53.90
2023-05-08T05:23:12.908Z,53.90
2023-05-08T05:25:39.757Z,53.90
2023-05-08T05:28:06.550Z,54.10
2023-05-08T05:30:34.102Z,54.20
2023-05-08T05:33:00.875Z,54.20
2023-05-08T05:35:27.674Z,54.10
2023-05-08T05:37:54.444Z,54.40
2023-05-08T05:40:21.373Z,54.50
2023-05-08T05:42:51.459Z,54.40
2023-05-08T05:45:18.524Z,54.70
2023-05-08T05:47:50.139Z,54.50
2023-05-08T05:50:18.634Z,54.60
2023-05-08T05:52:45.675Z,54.60
2023-05-08T05:55:13.103Z,54.60
2023-05-08T05:57:40.547Z,54.60
2023-05-08T06:00:08.245Z,54.60
2023-05-08T06:02:36.733Z,54.70
2023-05-08T06:05:04.892Z,54.60
2023-05-08T06:07:31.633Z,54.40
2023-05-08T06:09:58.369Z,54.30
2023-05-08T06:12:25.559Z,54.30
2023-05-08T06:14:52.822Z,54.30
2023-05-08T06:17:19.673Z,54.40
2023-05-08T06:19:54.115Z,54.40
2023-05-08T06:22:24.390Z,54.60
2023-05-08T06:24:54.659Z,54.60
2023-05-08T06:27:22.598Z,54.50
2023-05-08T06:29:53.413Z,54.40
2023-05-08T06:32:21.087Z,54.50
2023-05-08T06:34:48.443Z,54.50
2023-05-08T06:37:15.476Z,54.50
2023-05-08T06:39:42.488Z,54.50
2023-05-08T06:42:09.628Z,54.70
2023-05-08T06:44:36.466Z,54.90
2023-05-08T06:47:03.560Z,55.10
2023-05-08T06:49:30.678Z,55.10
2023-05-08T06:51:58.141Z,55.00
2023-05-08T06:54:25.349Z,55.10
2023-05-08T06:56:54.261Z,55.00
2023-05-08T06:59:23.223Z,55.20
2023-05-08T07:01:50.605Z,55.00
2023-05-08T07:04:17.496Z,55.10
2023-05-08T07:06:44.340Z,55.30
2023-05-08T07:09:12.106Z,55.40
2023-05-08T07:11:39.004Z,55.30
2023-05-08T07:14:05.715Z,55.20
2023-05-08T07:16:32.681Z,55.10
2023-05-08T07:18:59.531Z,55.10
2023-05-08T07:21:26.567Z,55.30
2023-05-08T07:23:54.575Z,55.40
2023-05-08T07:26:22.467Z,55.50
2023-05-08T07:28:50.812Z,55.10
2023-05-08T07:31:17.683Z,55.20
2023-05-08T07:33:44.584Z,55.30
2023-05-08T07:36:11.646Z,55.40
2023-05-08T07:38:41.401Z,55.20
2023-05-08T07:41:08.375Z,55.20
2023-05-08T07:43:35.244Z,55.20
2023-05-08T07:46:02.021Z,55.10
2023-05-08T07:48:28.857Z,55.00
2023-05-08T07:50:55.672Z,54.80
2023-05-08T07:53:22.400Z,54.60
2023-05-08T07:55:49.113Z,54.70
2023-05-08T07:58:15.897Z,54.80
2023-05-08T08:00:42.762Z,54.60
2023-05-08T08:03:09.657Z,54.50
2023-05-08T08:05:36.466Z,54.60
2023-05-08T08:08:03.344Z,54.50
2023-05-08T08:10:31.477Z,54.60
2023-05-08T08:12:58.324Z,54.50
2023-05-08T08:15:25.110Z,54.50
2023-05-08T08:17:52.056Z,54.30
2023-05-08T08:20:19.105Z,54.50
2023-05-08T08:22:46.034Z,54.60
2023-05-08T08:25:13.179Z,54.50
2023-05-08T08:27:40.215Z,54.20
2023-05-08T08:30:16.911Z,54.10
2023-05-08T08:32:44.325Z,54.10
2023-05-08T08:35:11.581Z,54.20
2023-05-08T08:37:38.613Z,54.00
2023-05-08T08:40:06.120Z,54.20
2023-05-08T08:42:32.901Z,54.10
2023-05-08T08:45:00.576Z,54.10
2023-05-08T08:47:29.838Z,54.10
2023-05-08T08:50:00.572Z,53.90
2023-05-08T08:53:03.220Z,53.90
2023-05-08T08:55:31.212Z,53.70
2023-05-08T08:58:07.462Z,53.70
2023-05-08T09:00:37.265Z,53.60
2023-05-08T09:03:07.873Z,53.70
2023-05-08T09:05:35.788Z,53.60
2023-05-08T09:08:03.194Z,53.40
2023-05-08T09:10:30.118Z,53.40
2023-05-08T09:12:57.019Z,53.40
2023-05-08T09:15:23.737Z,53.40
2023-05-08T09:17:50.632Z,53.40
2023-05-08T09:20:17.526Z,53.40
2023-05-08T09:22:44.586Z,53.50
2023-05-08T09:25:11.661Z,53.40
2023-05-08T09:27:38.708Z,53.40
2023-05-08T09:30:14.199Z,53.30
2023-05-08T09:32:43.002Z,53.00
2023-05-08T09:35:11.644Z,52.90
2023-05-08T09:37:46.506Z,52.60
2023-05-08T09:40:21.731Z,52.50
2023-05-08T09:42:50.227Z,52.40
2023-05-08T09:45:28.300Z,52.60
2023-05-08T09:47:55.355Z,52.20
2023-05-08T09:50:22.241Z,52.30
2023-05-08T09:52:50.836Z,52.30
2023-05-08T09:55:18.339Z,52.20
2023-05-08T09:58:00.526Z,52.10
2023-05-08T10:00:29.417Z,52.20
2023-05-08T10:03:03.220Z,52.20
2023-05-08T10:05:32.631Z,52.20
2023-05-08T10:08:20.086Z,52.10
2023-05-08T10:10:47.404Z,52.10
2023-05-08T10:13:14.306Z,52.10
2023-05-08T10:15:45.028Z,52.10
2023-05-08T10:18:13.128Z,52.10
2023-05-08T10:20:41.876Z,52.00
2023-05-08T10:23:11.453Z,52.00
2023-05-08T10:25:45.399Z,51.90
2023-05-08T10:28:32.823Z,51.70
2023-05-08T10:31:03.969Z,51.60
2023-05-08T10:33:34.157Z,51.60
2023-05-08T10:36:01.085Z,51.70
2023-05-08T10:38:31.057Z,51.80
2023-05-08T10:41:01.403Z,51.90
2023-05-08T10:43:30.390Z,52.00
2023-05-08T10:45:58.754Z,51.70
2023-05-08T10:48:28.344Z,51.70
2023-05-08T10:51:25.932Z,51.80
2023-05-08T10:54:02.192Z,51.80
2023-05-08T10:56:29.408Z,51.90
2023-05-08T10:58:59.415Z,52.10
2023-05-08T11:01:26.885Z,52.40
2023-05-08T11:03:55.857Z,51.80
2023-05-08T11:06:49.293Z,51.80
2023-05-08T11:09:22.075Z,51.70
2023-05-08T11:12:01.880Z,51.80
2023-05-08T11:14:29.596Z,51.60
2023-05-08T11:17:02.058Z,51.50
2023-05-08T11:19:29.079Z,51.30
2023-05-08T11:22:13.922Z,51.30
2023-05-08T11:25:02.375Z,51.30
2023-05-08T11:28:06.759Z,50.90
2023-05-08T11:30:34.792Z,50.40
2023-05-08T11:33:05.096Z,50.50
2023-05-08T11:35:55.469Z,50.10
2023-05-08T11:38:28.509Z,50.10
2023-05-08T11:40:59.445Z,49.90
2023-05-08T11:43:27.199Z,50.00
2023-05-08T11:45:55.031Z,49.80
2023-05-08T11:48:21.735Z,50.00
2023-05-08T11:50:49.618Z,49.80
2023-05-08T11:53:16.568Z,49.60
2023-05-08T11:55:43.912Z,49.60
2023-05-08T11:58:14.393Z,49.60
2023-05-08T12:00:45.409Z,49.60
2023-05-08T12:03:13.862Z,50.00
2023-05-08T12:05:41.027Z,49.40
2023-05-08T12:08:09.056Z,49.20
2023-05-08T12:10:53.668Z,49.30
2023-05-08T12:13:21.560Z,49.30
2023-05-08T12:15:57.246Z,49.00
2023-05-08T12:18:25.290Z,48.90
2023-05-08T12:20:53.420Z,48.90
2023-05-08T12:23:20.956Z,48.90
2023-05-08T12:25:47.787Z,48.90
2023-05-08T12:28:15.668Z,48.90
2023-05-08T12:30:42.593Z,48.80
2023-05-08T12:33:11.100Z,48.80
2023-05-08T12:35:39.343Z,48.60
2023-05-08T12:38:08.152Z,48.90
2023-05-08T12:40:42.901Z,48.50
2023-05-08T12:43:11.411Z,48.30
2023-05-08T12:45:40.576Z,48.10
2023-05-08T12:48:12.598Z,48.30
2023-05-08T12:50:44.896Z,48.10
2023-05-08T12:53:14.318Z,48.00
2023-05-08T12:55:53.469Z,47.80
2023-05-08T12:58:23.995Z,47.90
2023-05-08T13:00:52.370Z,48.10
2023-05-08T13:03:28.052Z,48.20
2023-05-08T13:05:57.836Z,48.00
2023-05-08T13:08:55.194Z,47.80
2023-05-08T13:11:33.236Z,47.40
2023-05-08T13:14:00.453Z,47.50
2023-05-08T13:16:27.399Z,47.50
2023-05-08T13:18:54.169Z,47.30
2023-05-08T13:21:21.123Z,47.20
2023-05-08T13:23:47.901Z,47.30
2023-05-08T13:26:14.614Z,47.20
2023-05-08T13:28:41.373Z,47.50
2023-05-08T13:31:08.079Z,47.40
2023-05-08T13:33:35.249Z,47.20
2023-05-08T13:36:02.088Z,47.20
2023-05-08T13:38:28.908Z,46.80
2023-05-08T13:40:55.684Z,46.30
2023-05-08T13:43:22.381Z,46.40
2023-05-08T13:45:49.208Z,46.70
2023-05-08T13:48:16.000Z,46.60
2023-05-08T13:50:43.156Z,46.60
2023-05-08T13:53:09.934Z,46.90
2023-05-08T13:55:37.029Z,46.90
2023-05-08T13:58:03.816Z,46.70
2023-05-08T14:00:30.624Z,47.40
2023-05-08T14:02:57.478Z,46.90
2023-05-08T14:05:24.293Z,47.00
2023-05-08T14:07:51.062Z,46.70
2023-05-08T14:10:17.811Z,46.70
2023-05-08T14:12:44.793Z,46.60
2023-05-08T14:15:12.254Z,46.80
2023-05-08T14:17:39.468Z,46.90
2023-05-08T14:20:06.841Z,46.70
2023-05-08T14:22:33.613Z,46.20
2023-05-08T14:25:00.430Z,46.40
2023-05-08T14:27:27.323Z,46.50
2023-05-08T14:29:55.672Z,46.50
2023-05-08T14:32:22.528Z,46.20
2023-05-08T14:34:49.296Z,46.40
2023-05-08T14:37:17.617Z,46.10
2023-05-08T14:39:45.534Z,46.40
2023-05-08T14:44:42.051Z,46.50
2023-05-08T14:47:09.407Z,46.30
2023-05-08T14:49:38.422Z,46.10
2023-05-08T14:52:06.713Z,46.30
2023-05-08T14:54:33.806Z,46.10
2023-05-08T14:57:00.798Z,45.70
2023-05-08T14:59:27.652Z,45.60
2023-05-08T15:01:54.508Z,45.20
2023-05-08T15:04:21.500Z,45.30
2023-05-08T15:06:48.475Z,45.30
2023-05-08T15:09:16.489Z,45.30
2023-05-08T15:11:43.632Z,45.00
2023-05-08T15:14:10.492Z,44.70
2023-05-08T15:16:37.401Z,44.50
2023-05-08T15:19:04.286Z,44.40
2023-05-08T15:21:31.180Z,44.30
2023-05-08T15:23:57.996Z,44.50
2023-05-08T15:26:24.831Z,44.30
2023-05-08T15:28:51.748Z,45.00
2023-05-08T15:31:18.775Z,44.50
2023-05-08T15:33:46.048Z,44.80
2023-05-08T15:36:13.672Z,44.70
2023-05-08T15:38:41.366Z,44.80
2023-05-08T15:41:14.768Z,44.80
2023-05-08T15:43:42.961Z,44.90
2023-05-08T15:46:09.980Z,45.10
2023-05-08T15:48:36.912Z,45.20
2023-05-08T15:51:03.751Z,45.30
2023-05-08T15:53:30.577Z,45.30
2023-05-08T15:55:57.555Z,45.30
2023-05-08T15:58:24.558Z,45.30
2023-05-08T16:00:51.753Z,45.30
2023-05-08T16:03:19.083Z,44.90
2023-05-08T16:05:46.139Z,44.90
2023-05-08T16:08:13.730Z,44.90
2023-05-08T16:10:41.383Z,45.00
2023-05-08T16:13:08.765Z,45.00
2023-05-08T16:15:35.654Z,45.00
2023-05-08T16:18:02.993Z,45.00
2023-05-08T16:20:30.517Z,44.50
2023-05-08T16:22:58.465Z,44.30
2023-05-08T16:25:25.579Z,44.10
2023-05-08T16:27:52.655Z,44.10
2023-05-08T16:30:19.573Z,44.00
2023-05-08T16:32:46.605Z,44.00
2023-05-08T16:35:14.203Z,43.90
2023-05-08T16:37:41.392Z,44.10
2023-05-08T16:40:08.812Z,43.90
2023-05-08T16:42:37.000Z,43.70
2023-05-08T16:45:08.139Z,43.70
2023-05-08T16:47:36.046Z,43.70
2023-05-08T16:50:04.060Z,43.90
2023-05-08T16:52:32.683Z,43.80
2023-05-08T16:54:59.480Z,43.80
2023-05-08T16:57:27.512Z,44.00
2023-05-08T16:59:54.374Z,43.90
2023-05-08T17:02:21.975Z,43.90
2023-05-08T17:04:49.762Z,43.90
2023-05-08T17:07:17.523Z,43.90
2023-05-08T17:09:44.864Z,43.80
2023-05-08T17:12:11.785Z,44.00
2023-05-08T17:14:40.294Z,44.10
2023-05-08T17:17:07.400Z,44.20
2023-05-08T17:19:34.342Z,44.20
2023-05-08T17:22:01.399Z,44.10
2023-05-08T17:24:30.402Z,44.30
2023-05-08T17:26:57.336Z,44.20
2023-05-08T17:29:24.539Z,44.40
2023-05-08T17:31:51.380Z,44.70
2023-05-08T17:34:18.160Z,44.60
2023-05-08T17:36:44.951Z,44.70
2023-05-08T17:39:12.518Z,45.00
2023-05-08T17:41:39.337Z,45.30
2023-05-08T17:44:07.027Z,45.40
2023-05-08T17:46:33.817Z,45.30
2023-05-08T17:49:00.669Z,45.30
2023-05-08T17:51:27.459Z,45.30
2023-05-08T17:53:56.045Z,45.30
2023-05-08T17:56:23.382Z,45.30
2023-05-08T17:58:52.371Z,45.30
2023-05-08T18:01:20.350Z,45.40
2023-05-08T18:03:50.267Z,45.60
2023-05-08T18:06:18.303Z,45.80
2023-05-08T18:08:45.939Z,45.90
2023-05-08T18:11:17.205Z,46.00
2023-05-08T18:13:43.977Z,46.00
2023-05-08T18:16:13.243Z,46.10
2023-05-08T18:18:40.168Z,45.90
2023-05-08T18:21:07.091Z,46.00
2023-05-08T18:23:34.159Z,46.10
2023-05-08T18:26:01.054Z,46.10
2023-05-08T18:28:28.250Z,46.10
2023-05-08T18:30:55.436Z,46.70
2023-05-08T18:33:22.381Z,45.80
2023-05-08T18:35:49.326Z,45.80
2023-05-08T18:38:17.586Z,45.90
2023-05-08T18:40:45.484Z,45.80
2023-05-08T18:43:12.318Z,45.70
2023-05-08T18:45:40.302Z,45.70
2023-05-08T18:48:10.767Z,45.80
2023-05-08T18:50:37.794Z,45.90
2023-05-08T18:53:04.683Z,45.90
2023-05-08T18:55:31.464Z,45.80
2023-05-08T18:57:58.391Z,45.80
2023-05-08T19:00:25.415Z,45.80
2023-05-08T19:02:52.346Z,45.80
2023-05-08T19:05:19.258Z,45.70
2023-05-08T19:07:46.119Z,45.70
2023-05-08T19:10:13.446Z,45.70
2023-05-08T19:12:40.622Z,45.90
2023-05-08T19:15:09.370Z,45.70
2023-05-08T19:17:37.044Z,45.70
2023-05-08T19:20:04.576Z,45.70
2023-05-08T19:22:33.774Z,45.70
2023-05-08T19:25:02.278Z,45.50
2023-05-08T19:27:29.212Z,45.60
2023-05-08T19:29:56.305Z,45.50
2023-05-08T19:32:23.267Z,45.50
2023-05-08T19:34:50.186Z,45.30
2023-05-08T19:37:16.993Z,45.40
2023-05-08T19:39:43.910Z,45.40
2023-05-08T19:42:13.719Z,45.30
2023-05-08T19:44:40.645Z,45.40
2023-05-08T19:47:07.667Z,45.40
2023-05-08T19:49:34.437Z,45.40
2023-05-08T19:52:01.218Z,45.30
2023-05-08T19:54:29.268Z,45.20
2023-05-08T19:56:56.197Z,46.00
2023-05-08T19:59:23.047Z,45.60
2023-05-08T20:01:53.704Z,45.50
2023-05-08T20:04:20.764Z,45.40
2023-05-08T20:06:47.575Z,45.30
2023-05-08T20:09:14.282Z,45.20
2023-05-08T20:11:41.052Z,45.40
2023-05-08T20:14:07.772Z,45.40
2023-05-08T20:16:34.578Z,45.40
2023-05-08T20:19:01.767Z,45.40
2023-05-08T20:21:33.846Z,45.40
2023-05-08T20:24:01.171Z,45.30
2023-05-08T20:26:29.426Z,45.40
2023-05-08T20:28:56.907Z,45.50
2023-05-08T20:31:25.765Z,45.60
2023-05-08T20:33:52.912Z,45.60
2023-05-08T20:36:20.333Z,45.80
2023-05-08T20:38:47.240Z,45.90
2023-05-08T20:41:14.091Z,45.90
2023-05-08T20:43:41.019Z,46.00
2023-05-08T20:46:08.228Z,46.10
2023-05-08T20:48:35.237Z,46.10
2023-05-08T20:51:04.568Z,46.00
2023-05-08T20:53:32.125Z,46.20
2023-05-08T20:56:03.485Z,46.20
2023-05-08T20:58:30.462Z,46.20
2023-05-08T21:00:57.646Z,46.20
2023-05-08T21:03:24.528Z,46.20
2023-05-08T21:05:51.845Z,46.20
2023-05-08T21:08:23.030Z,46.20
2023-05-08T21:10:50.689Z,46.10
2023-05-08T21:13:17.875Z,46.20
2023-05-08T21:15:44.959Z,46.30
2023-05-08T21:18:12.003Z,46.20
2023-05-08T21:20:38.997Z,46.30
2023-05-08T21:23:05.825Z,46.50
2023-05-08T21:25:32.734Z,46.50
2023-05-08T21:27:59.561Z,46.60
2023-05-08T21:30:26.333Z,46.50
2023-05-08T21:32:53.170Z,46.50
2023-05-08T21:35:20.210Z,46.50
2023-05-08T21:37:46.995Z,46.70
2023-05-08T21:40:13.838Z,46.70
2023-05-08T21:42:40.788Z,46.70
2023-05-08T21:45:07.951Z,46.80
2023-05-08T21:47:34.757Z,46.80
2023-05-08T21:50:01.562Z,46.90
2023-05-08T21:52:28.354Z,46.90
2023-05-08T21:54:55.108Z,47.00
2023-05-08T21:57:21.901Z,47.00
2023-05-08T21:59:51.746Z,47.10
2023-05-08T22:02:19.981Z,47.10
2023-05-08T22:04:46.816Z,47.10
2023-05-08T22:07:13.699Z,47.10
2023-05-08T22:09:40.576Z,47.20
2023-05-08T22:12:08.354Z,47.20
2023-05-08T22:14:35.207Z,47.20
2023-05-08T22:17:02.125Z,47.20
2023-05-08T22:19:29.081Z,47.10
2023-05-08T22:21:58.882Z,47.20
2023-05-08T22:24:26.342Z,47.20
2023-05-08T22:26:53.126Z,47.30
2023-05-08T22:29:19.840Z,47.20
2023-05-08T22:31:47.822Z,47.10
2023-05-08T22:34:15.028Z,47.10
2023-05-08T22:36:41.959Z,47.10
2023-05-08T22:39:13.099Z,47.20
2023-05-08T22:41:40.035Z,47.20
2023-05-08T22:44:07.296Z,47.40
2023-05-08T22:46:35.352Z,47.50
2023-05-08T22:49:02.737Z,47.50
2023-05-08T22:51:30.411Z,47.30
2023-05-08T22:53:57.218Z,47.50
2023-05-08T22:56:24.050Z,47.50
2023-05-08T22:58:50.849Z,47.60
2023-05-08T23:01:17.866Z,47.60
2023-05-08T23:03:44.655Z,47.70
2023-05-08T23:06:11.432Z,47.60
2023-05-08T23:08:38.180Z,47.60
2023-05-08T23:11:05.321Z,47.60
2023-05-08T23:13:33.454Z,47.60
2023-05-08T23:16:00.375Z,47.60
2023-05-08T23:18:27.188Z,47.50
2023-05-08T23:20:53.952Z,47.50
2023-05-08T23:23:20.789Z,47.50
2023-05-08T23:25:47.555Z,47.50
2023-05-08T23:28:14.358Z,47.50
2023-05-08T23:30:41.128Z,47.50
2023-05-08T23:33:08.563Z,47.50
2023-05-08T23:35:35.352Z,47.50
2023-05-08T23:38:02.109Z,47.50
2023-05-08T23:40:28.949Z,47.50
2023-05-08T23:42:56.119Z,47.50
2023-05-08T23:45:22.872Z,47.50
2023-05-08T23:47:49.670Z,47.40
2023-05-08T23:50:16.588Z,47.50
2023-05-08T23:52:43.376Z,47.50
2023-05-08T23:55:10.414Z,47.50
2023-05-08T23:57:37.190Z,47.40
